CheckWX is a tool to help pilots better visualize weather data.  It is not intended as a substitute for an official pre-flight weather briefing.

01:58:31 UTC

GUCY TAF
Conakry Airport
Conakry, Guinea
TAF GUCY 182300Z 1900/2006 22006KT 5000 HZ SCT110 TEMPO 1903/1908 04004KT 3000 BR FEW015 SCT110

Mar-19@
00:00 UTC

Mar-19 @ 00:00 UTC

Mar-20@
06:00 UTC

Mar-20 @ 06:00 UTC

TAF GUCY 182300Z 1900/2006 22006KT 5000 HZ SCT110
Wind
  • 220° at 6 KTS
Conditions
Haze
Cloud Levels
  • Scattered at 11,000' AGL

Mar-19@
03:00 UTC

Mar-19 @ 03:00 UTC

Mar-19@
08:00 UTC

Mar-19 @ 08:00 UTC

TEMPO 1903/1908 04004KT 3000 BR FEW015 SCT110

Temporary

Temporary Changes expected for less than half the time period

Wind
  • 040° at 4 KTS
Conditions
Mist
Cloud Levels
  • Few at 1,500' AGL
  • Scattered at 11,000' AGL